Time;durP1;ratioP1;P1;durP2;ratioP2;P2;SDS_P1;SDS_P2;PMS_P1;PMS_P2;Temp;Humidity;BMP_temperature;BMP_pressure;BME280_temperature;BME280_humidity;BME280_pressure;Samples;Min_cycle;Max_cycle;Signal;HPM_P1;HPM_P2
2021/12/08 00:01:15;;;;;;;5.53;3.30;;;;;;;;;;5039324;28;20209;-80
2021/12/08 00:03:42;;;;;;;3.47;3.03;;;;;;;;;;5039131;28;20209;-81
2021/12/08 00:06:11;;;;;;;4.07;3.17;;;;;;;;;;5044678;28;20239;-80
2021/12/08 00:08:39;;;;;;;6.00;3.53;;;;;;;;;;5046583;28;20329;-81
2021/12/08 00:13:53;;;;;;;3.27;2.43;;;;;;;;;;5037040;28;20294;-80
2021/12/08 00:16:20;;;;;;;3.27;2.87;;;;;;;;;;5053904;28;20300;-81
2021/12/08 00:18:48;;;;;;;3.33;3.03;;;;;;;;;;5043015;28;20226;-81
2021/12/08 00:21:17;;;;;;;3.60;2.97;;;;;;;;;;5052089;28;20285;-81
2021/12/08 00:23:45;;;;;;;3.33;2.97;;;;;;;;;;5041060;28;20218;-81
2021/12/08 00:26:16;;;;;;;4.30;3.17;;;;;;;;;;5040303;28;20202;-81
2021/12/08 00:28:46;;;;;;;4.00;3.07;;;;;;;;;;5047165;28;20217;-80
2021/12/08 00:31:14;;;;;;;3.57;3.00;;;;;;;;;;5058518;28;20240;-81
2021/12/08 00:33:41;;;;;;;3.90;2.90;;;;;;;;;;5043156;28;20216;-80
2021/12/08 00:36:13;;;;;;;4.30;2.80;;;;;;;;;;5035463;28;20209;-80
2021/12/08 00:38:40;;;;;;;3.47;3.07;;;;;;;;;;5044081;28;20226;-81
2021/12/08 00:41:08;;;;;;;3.73;3.03;;;;;;;;;;5044915;28;20228;-81
2021/12/08 00:43:37;;;;;;;3.23;2.80;;;;;;;;;;5049512;28;20261;-81
2021/12/08 00:46:04;;;;;;;4.97;2.93;;;;;;;;;;5051306;28;20285;-80
2021/12/08 00:48:32;;;;;;;3.10;2.73;;;;;;;;;;5046198;28;20234;-81
2021/12/08 00:50:59;;;;;;;3.00;2.70;;;;;;;;;;5045717;28;20232;-81
2021/12/08 00:53:26;;;;;;;2.97;2.23;;;;;;;;;;5038346;28;20202;-80
2021/12/08 00:55:54;;;;;;;2.90;2.07;;;;;;;;;;5038752;28;20206;-80
2021/12/08 00:58:24;;;;;;;3.60;2.27;;;;;;;;;;5044138;28;20238;-80
2021/12/08 01:00:54;;;;;;;2.77;2.30;;;;;;;;;;5056000;28;20220;-80
2021/12/08 01:03:23;;;;;;;2.43;2.00;;;;;;;;;;5052297;28;20241;-81
2021/12/08 01:05:53;;;;;;;2.43;2.10;;;;;;;;;;5045984;28;20204;-80
2021/12/08 01:08:22;;;;;;;2.90;2.00;;;;;;;;;;5051523;28;20316;-80
2021/12/08 01:10:50;;;;;;;2.80;2.20;;;;;;;;;;5054652;28;20208;-80
2021/12/08 01:13:18;;;;;;;5.50;2.27;;;;;;;;;;5045364;28;20289;-81
2021/12/08 01:15:46;;;;;;;2.20;2.00;;;;;;;;;;5046428;28;20240;-80
2021/12/08 01:18:19;;;;;;;2.63;2.10;;;;;;;;;;5040010;28;20262;-80
2021/12/08 01:20:47;;;;;;;3.00;2.17;;;;;;;;;;5041642;28;20221;-80
2021/12/08 01:23:14;;;;;;;2.20;1.90;;;;;;;;;;5051449;28;20225;-81
2021/12/08 01:25:42;;;;;;;2.00;1.90;;;;;;;;;;5044490;28;20233;-80
2021/12/08 01:28:09;;;;;;;3.87;2.07;;;;;;;;;;5056930;28;20218;-80
2021/12/08 01:30:37;;;;;;;2.20;2.00;;;;;;;;;;5061334;28;20205;-80
2021/12/08 01:33:04;;;;;;;2.33;2.07;;;;;;;;;;5049022;28;20229;-80
2021/12/08 01:35:33;;;;;;;2.77;1.97;;;;;;;;;;5049319;28;20233;-80
2021/12/08 01:38:00;;;;;;;1.87;1.77;;;;;;;;;;5057295;28;20271;-81
2021/12/08 01:40:31;;;;;;;2.70;2.03;;;;;;;;;;5045215;28;20224;-81
2021/12/08 01:43:00;;;;;;;2.30;2.10;;;;;;;;;;5040209;28;20221;-81
2021/12/08 01:48:16;;;;;;;2.33;2.00;;;;;;;;;;5045833;28;20229;-81
2021/12/08 01:50:47;;;;;;;2.30;2.10;;;;;;;;;;5039871;28;20233;-81
2021/12/08 01:53:14;;;;;;;2.37;2.00;;;;;;;;;;5041296;28;20206;-81
2021/12/08 01:55:42;;;;;;;2.03;1.93;;;;;;;;;;5045252;28;20232;-80
2021/12/08 01:58:10;;;;;;;3.17;2.13;;;;;;;;;;5043331;28;20236;-80
2021/12/08 02:00:39;;;;;;;1.93;1.70;;;;;;;;;;5051964;28;20206;-81
2021/12/08 02:03:09;;;;;;;2.20;2.00;;;;;;;;;;5043710;28;20264;-81
2021/12/08 02:05:36;;;;;;;3.07;1.90;;;;;;;;;;5041137;28;20209;-80
2021/12/08 02:08:07;;;;;;;2.00;1.80;;;;;;;;;;5051708;28;20228;-81
2021/12/08 02:10:37;;;;;;;2.67;1.77;;;;;;;;;;5053420;28;20327;-81
2021/12/08 02:13:04;;;;;;;2.43;2.03;;;;;;;;;;5045666;28;20225;-81
2021/12/08 02:15:33;;;;;;;2.90;2.00;;;;;;;;;;5042376;28;20202;-80
2021/12/08 02:18:00;;;;;;;2.20;2.00;;;;;;;;;;5039505;28;20236;-81
2021/12/08 02:20:29;;;;;;;2.63;1.90;;;;;;;;;;5051344;28;20204;-81
2021/12/08 02:22:58;;;;;;;2.33;1.90;;;;;;;;;;5046042;28;20206;-80
2021/12/08 02:25:26;;;;;;;2.30;2.10;;;;;;;;;;5039789;28;20199;-80
2021/12/08 02:27:55;;;;;;;2.30;1.60;;;;;;;;;;5042109;28;20214;-81
2021/12/08 02:30:29;;;;;;;2.40;2.20;;;;;;;;;;5038432;28;20202;-80
2021/12/08 02:46:51;;;;;;;2.70;1.90;;;;;;;;;;5040138;28;20213;-80
2021/12/08 02:49:20;;;;;;;2.10;1.90;;;;;;;;;;5039993;28;20284;-80
2021/12/08 02:51:47;;;;;;;2.50;1.90;;;;;;;;;;5039767;28;20669;-81
2021/12/08 02:54:15;;;;;;;2.37;2.10;;;;;;;;;;5058762;28;20213;-81
2021/12/08 02:56:43;;;;;;;3.40;2.10;;;;;;;;;;5053226;28;20218;-80
2021/12/08 02:59:10;;;;;;;2.37;2.17;;;;;;;;;;5038897;28;20241;-80
2021/12/08 03:01:38;;;;;;;2.63;2.10;;;;;;;;;;5040052;28;20203;-80
2021/12/08 03:04:05;;;;;;;2.70;2.03;;;;;;;;;;5048511;28;20292;-80
2021/12/08 03:06:33;;;;;;;2.17;2.07;;;;;;;;;;5042542;28;20225;-80
2021/12/08 03:09:00;;;;;;;3.03;2.50;;;;;;;;;;5044773;28;20228;-80
2021/12/08 03:11:29;;;;;;;2.70;2.50;;;;;;;;;;5040740;28;20232;-80
2021/12/08 03:14:01;;;;;;;3.77;2.90;;;;;;;;;;5040387;28;20289;-80
2021/12/08 03:16:28;;;;;;;3.40;2.87;;;;;;;;;;5037621;28;20661;-81
2021/12/08 03:18:55;;;;;;;2.93;2.73;;;;;;;;;;5046979;28;20249;-80
2021/12/08 03:21:29;;;;;;;3.97;3.23;;;;;;;;;;5053368;28;20209;-80
2021/12/08 03:24:07;;;;;;;4.47;3.60;;;;;;;;;;5050303;28;20727;-81
2021/12/08 03:26:45;;;;;;;3.73;3.30;;;;;;;;;;5032829;28;20198;-80
2021/12/08 03:29:21;;;;;;;4.27;3.60;;;;;;;;;;5040572;28;20205;-80
2021/12/08 03:31:51;;;;;;;3.73;3.40;;;;;;;;;;5057595;28;20204;-81
2021/12/08 03:34:21;;;;;;;4.57;3.70;;;;;;;;;;5043863;28;20257;-80
2021/12/08 03:36:48;;;;;;;4.20;3.63;;;;;;;;;;5055187;28;20323;-80
2021/12/08 03:39:15;;;;;;;5.20;3.93;;;;;;;;;;5037115;28;20256;-80
2021/12/08 03:41:45;;;;;;;3.93;3.30;;;;;;;;;;5039069;28;20209;-80
2021/12/08 03:44:13;;;;;;;4.63;4.10;;;;;;;;;;5042530;28;20633;-80
2021/12/08 03:46:41;;;;;;;5.33;4.17;;;;;;;;;;5039490;28;20221;-80
2021/12/08 03:49:11;;;;;;;4.23;3.90;;;;;;;;;;5034914;28;20198;-82
2021/12/08 03:51:38;;;;;;;5.63;4.00;;;;;;;;;;5033908;28;20304;-82
2021/12/08 03:54:06;;;;;;;4.57;4.17;;;;;;;;;;5036221;28;20216;-82
2021/12/08 03:56:34;;;;;;;4.67;3.77;;;;;;;;;;5030386;28;20198;-79
2021/12/08 03:59:02;;;;;;;5.43;3.63;;;;;;;;;;5035794;28;20686;-79
2021/12/08 04:01:30;;;;;;;3.93;3.57;;;;;;;;;;5039014;28;20265;-79
2021/12/08 04:04:02;;;;;;;5.73;4.07;;;;;;;;;;5037180;28;20248;-79
2021/12/08 04:06:33;;;;;;;4.67;4.27;;;;;;;;;;5043165;28;20208;-78
2021/12/08 04:09:05;;;;;;;6.40;4.30;;;;;;;;;;5072734;28;20190;-78
2021/12/08 04:11:33;;;;;;;4.40;4.00;;;;;;;;;;5045955;28;20224;-79
2021/12/08 04:14:01;;;;;;;5.13;3.83;;;;;;;;;;5047160;28;20226;-79
2021/12/08 04:16:32;;;;;;;4.57;4.10;;;;;;;;;;5034283;28;20198;-79
2021/12/08 04:19:00;;;;;;;4.50;4.10;;;;;;;;;;5042320;28;20286;-78
2021/12/08 04:21:27;;;;;;;4.53;4.13;;;;;;;;;;5037657;28;20340;-78
2021/12/08 04:23:54;;;;;;;4.63;4.23;;;;;;;;;;5031049;28;20202;-78
2021/12/08 04:26:23;;;;;;;3.90;3.60;;;;;;;;;;5033559;28;20329;-79
2021/12/08 04:28:50;;;;;;;4.77;4.37;;;;;;;;;;5029710;28;20194;-78
2021/12/08 04:31:19;;;;;;;9.50;7.30;;;;;;;;;;5033902;28;20271;-78
2021/12/08 04:33:52;;;;;;;4.87;4.47;;;;;;;;;;5034124;28;20205;-78
2021/12/08 04:36:19;;;;;;;4.97;4.30;;;;;;;;;;5036210;28;20201;-79
2021/12/08 04:38:51;;;;;;;6.10;4.40;;;;;;;;;;5035413;28;20248;-78
2021/12/08 04:41:23;;;;;;;7.27;4.77;;;;;;;;;;5032799;28;20194;-78
2021/12/08 04:43:58;;;;;;;6.77;4.83;;;;;;;;;;5029143;28;20217;-79
2021/12/08 04:46:43;;;;;;;4.80;4.40;;;;;;;;;;5034462;28;20201;-80
2021/12/08 04:49:30;;;;;;;5.10;4.40;;;;;;;;;;5034488;28;20194;-79
2021/12/08 04:52:05;;;;;;;4.57;4.17;;;;;;;;;;5029531;28;20211;-79
2021/12/08 05:00:39;;;;;;;4.70;4.30;;;;;;;;;;5054475;28;20231;-79
2021/12/08 05:03:24;;;;;;;5.03;4.33;;;;;;;;;;5034055;28;20215;-79
2021/12/08 05:06:18;;;;;;;5.20;4.60;;;;;;;;;;5042983;28;20237;-79
2021/12/08 05:08:46;;;;;;;5.00;4.50;;;;;;;;;;5036255;28;20217;-79
2021/12/08 05:11:14;;;;;;;5.47;4.97;;;;;;;;;;5045132;28;20237;-79
2021/12/08 05:13:42;;;;;;;5.17;4.67;;;;;;;;;;5045714;28;20237;-79
2021/12/08 05:16:10;;;;;;;5.50;5.00;;;;;;;;;;5038055;28;20249;-79
2021/12/08 05:18:39;;;;;;;4.80;4.33;;;;;;;;;;5047014;28;20229;-78
2021/12/08 05:21:10;;;;;;;5.77;4.93;;;;;;;;;;5044874;28;20218;-79
2021/12/08 05:23:39;;;;;;;6.17;4.80;;;;;;;;;;5039749;28;20293;-79
2021/12/08 05:26:08;;;;;;;5.97;5.10;;;;;;;;;;5053405;28;20224;-79
2021/12/08 05:28:35;;;;;;;6.93;5.43;;;;;;;;;;5055565;28;20229;-80
2021/12/08 05:31:05;;;;;;;8.07;5.27;;;;;;;;;;5041466;28;20284;-79
2021/12/08 05:33:33;;;;;;;6.50;5.90;;;;;;;;;;5056923;28;20231;-82
2021/12/08 05:36:00;;;;;;;7.70;6.57;;;;;;;;;;5048177;28;20273;-83
2021/12/08 05:38:29;;;;;;;7.53;6.83;;;;;;;;;;5048444;28;20236;-83
2021/12/08 05:40:58;;;;;;;9.50;8.60;;;;;;;;;;5048035;28;20240;-82
2021/12/08 05:43:25;;;;;;;7.53;6.63;;;;;;;;;;5056726;28;20297;-83
2021/12/08 05:45:53;;;;;;;7.63;6.57;;;;;;;;;;5050281;28;20377;-83
2021/12/08 05:48:20;;;;;;;7.13;6.40;;;;;;;;;;5036950;28;20260;-83
2021/12/08 05:50:51;;;;;;;10.57;9.47;;;;;;;;;;5040510;28;20327;-83
2021/12/08 05:53:19;;;;;;;9.50;7.87;;;;;;;;;;5057406;28;20291;-83
2021/12/08 05:55:47;;;;;;;11.27;9.77;;;;;;;;;;5055600;28;20252;-82
2021/12/08 05:58:18;;;;;;;10.00;8.50;;;;;;;;;;5038722;28;20305;-83
2021/12/08 06:00:51;;;;;;;9.73;8.73;;;;;;;;;;5053022;28;20220;-82
2021/12/08 06:03:19;;;;;;;9.90;8.40;;;;;;;;;;5057718;28;20239;-83
2021/12/08 06:05:46;;;;;;;8.87;7.97;;;;;;;;;;5037686;28;20297;-83
2021/12/08 06:08:14;;;;;;;8.93;7.70;;;;;;;;;;5048976;28;20283;-83
2021/12/08 06:10:43;;;;;;;9.83;7.70;;;;;;;;;;5039206;28;20653;-83
2021/12/08 06:13:13;;;;;;;11.43;8.90;;;;;;;;;;5059746;28;20212;-83
2021/12/08 06:15:41;;;;;;;10.03;8.37;;;;;;;;;;5042642;28;20202;-83
2021/12/08 06:18:08;;;;;;;9.17;8.17;;;;;;;;;;5039488;28;20293;-83
2021/12/08 06:20:36;;;;;;;10.50;9.00;;;;;;;;;;5050973;28;20217;-83
2021/12/08 06:23:04;;;;;;;10.30;7.90;;;;;;;;;;5049295;28;20277;-82
2021/12/08 06:25:31;;;;;;;10.77;7.90;;;;;;;;;;5058547;28;20272;-83
2021/12/08 06:27:58;;;;;;;12.10;8.80;;;;;;;;;;5050585;28;20251;-83
2021/12/08 06:30:29;;;;;;;10.13;7.73;;;;;;;;;;5059433;28;20273;-83
2021/12/08 06:32:57;;;;;;;10.80;8.17;;;;;;;;;;5047936;28;20285;-81
2021/12/08 06:35:35;;;;;;;10.57;8.30;;;;;;;;;;5051393;28;20197;-83
2021/12/08 06:38:02;;;;;;;11.20;8.03;;;;;;;;;;5038709;28;20260;-81
2021/12/08 06:40:30;;;;;;;12.90;8.00;;;;;;;;;;5051026;28;20288;-82
2021/12/08 06:43:00;;;;;;;10.37;8.10;;;;;;;;;;5058678;28;20312;-82
2021/12/08 06:45:30;;;;;;;10.33;7.97;;;;;;;;;;5044552;28;20229;-83
2021/12/08 06:47:58;;;;;;;10.60;7.70;;;;;;;;;;5039201;28;20285;-83
2021/12/08 06:50:27;;;;;;;12.17;8.07;;;;;;;;;;5039540;28;20254;-82
2021/12/08 06:52:56;;;;;;;11.77;9.20;;;;;;;;;;5043709;28;20249;-82
2021/12/08 06:55:26;;;;;;;11.87;8.67;;;;;;;;;;5042398;28;20229;-82
2021/12/08 06:58:00;;;;;;;10.80;8.40;;;;;;;;;;5048169;28;20225;-83
2021/12/08 07:00:46;;;;;;;11.10;8.57;;;;;;;;;;5059836;28;20249;-82
2021/12/08 07:03:30;;;;;;;10.03;7.67;;;;;;;;;;5042266;28;20374;-83
2021/12/08 07:06:08;;;;;;;9.80;7.33;;;;;;;;;;5037739;28;20214;-83
2021/12/08 07:08:36;;;;;;;11.13;8.07;;;;;;;;;;5037655;28;20218;-83
2021/12/08 07:11:04;;;;;;;11.03;7.90;;;;;;;;;;5039117;28;20234;-83
2021/12/08 07:13:36;;;;;;;10.90;7.67;;;;;;;;;;5044906;28;20254;-83
2021/12/08 07:16:07;;;;;;;11.60;7.73;;;;;;;;;;5046497;28;20201;-83
2021/12/08 07:18:41;;;;;;;10.60;7.40;;;;;;;;;;5038210;28;20257;-83
2021/12/08 07:21:15;;;;;;;12.23;7.13;;;;;;;;;;5033405;28;20213;-83
2021/12/08 07:23:44;;;;;;;11.57;7.23;;;;;;;;;;5038918;28;20193;-83
2021/12/08 07:26:14;;;;;;;9.47;7.17;;;;;;;;;;5039138;28;20266;-83
2021/12/08 07:28:50;;;;;;;10.17;7.40;;;;;;;;;;5048870;28;20245;-82
2021/12/08 07:31:21;;;;;;;11.00;7.03;;;;;;;;;;5052233;28;20201;-81
2021/12/08 07:34:07;;;;;;;10.33;7.20;;;;;;;;;;5042668;28;20198;-83
2021/12/08 07:36:37;;;;;;;11.20;7.20;;;;;;;;;;5040410;28;20256;-82
2021/12/08 07:39:07;;;;;;;10.57;7.47;;;;;;;;;;5046803;28;20272;-83
2021/12/08 07:41:36;;;;;;;10.27;7.60;;;;;;;;;;5042923;28;20217;-81
2021/12/08 07:44:06;;;;;;;10.23;7.87;;;;;;;;;;5050623;28;20252;-82
2021/12/08 07:46:42;;;;;;;9.27;7.23;;;;;;;;;;5040936;28;20233;-82
2021/12/08 07:51:50;;;;;;;9.17;6.60;;;;;;;;;;5276361;22;20608;-82
2021/12/08 07:54:18;;;;;;;9.47;6.20;;;;;;;;;;5038134;28;20202;-82
2021/12/08 07:56:47;;;;;;;10.60;6.50;;;;;;;;;;5047180;28;20220;-82
2021/12/08 07:59:16;;;;;;;8.80;6.43;;;;;;;;;;5049348;28;20252;-80
2021/12/08 08:01:46;;;;;;;10.27;7.43;;;;;;;;;;5042263;28;20216;-79
2021/12/08 08:04:16;;;;;;;7.80;6.07;;;;;;;;;;5050853;28;20276;-80
2021/12/08 08:06:44;;;;;;;6.90;5.23;;;;;;;;;;5040838;28;20220;-80
2021/12/08 08:09:16;;;;;;;7.73;5.27;;;;;;;;;;5046801;28;20347;-81
2021/12/08 08:11:47;;;;;;;7.23;4.90;;;;;;;;;;5050773;28;20226;-80
2021/12/08 08:14:19;;;;;;;7.07;5.50;;;;;;;;;;5041425;28;20212;-80
2021/12/08 08:16:51;;;;;;;8.17;5.50;;;;;;;;;;5039135;28;20764;-80
2021/12/08 08:19:26;;;;;;;7.50;5.47;;;;;;;;;;5038885;28;20261;-87
2021/12/08 08:21:54;;;;;;;7.87;6.07;;;;;;;;;;5033232;28;20218;-77
2021/12/08 08:24:21;;;;;;;7.43;5.77;;;;;;;;;;5020779;28;20230;-82
2021/12/08 08:26:50;;;;;;;8.47;6.30;;;;;;;;;;5019800;28;20241;-84
2021/12/08 08:29:18;;;;;;;10.97;7.87;;;;;;;;;;5033906;28;20278;-82
2021/12/08 08:31:51;;;;;;;9.47;6.23;;;;;;;;;;5033384;28;20190;-81
2021/12/08 08:34:20;;;;;;;7.50;5.73;;;;;;;;;;5045138;28;20202;-81
2021/12/08 08:36:48;;;;;;;8.87;6.07;;;;;;;;;;5044325;28;20226;-82
2021/12/08 08:39:17;;;;;;;7.20;5.90;;;;;;;;;;5042691;28;20205;-80
2021/12/08 08:41:47;;;;;;;8.03;5.90;;;;;;;;;;5040171;28;20225;-81
2021/12/08 08:44:17;;;;;;;6.47;5.33;;;;;;;;;;5048418;28;20445;-81
2021/12/08 08:46:46;;;;;;;6.30;5.50;;;;;;;;;;5044168;28;20223;-81
2021/12/08 08:49:17;;;;;;;8.83;5.83;;;;;;;;;;5046877;28;20197;-81
2021/12/08 08:51:47;;;;;;;7.17;5.70;;;;;;;;;;5052903;28;20211;-80
2021/12/08 08:54:19;;;;;;;7.43;5.60;;;;;;;;;;5051652;28;20193;-80
2021/12/08 08:56:49;;;;;;;6.67;5.70;;;;;;;;;;5040589;28;20225;-80
2021/12/08 08:59:19;;;;;;;7.40;5.87;;;;;;;;;;5043365;28;20201;-80
2021/12/08 09:01:47;;;;;;;7.77;6.33;;;;;;;;;;5050206;28;20234;-80
2021/12/08 09:04:17;;;;;;;7.20;5.83;;;;;;;;;;5045955;28;20233;-80
2021/12/08 09:06:50;;;;;;;6.60;5.70;;;;;;;;;;5057669;28;20252;-80
2021/12/08 09:09:19;;;;;;;7.90;6.27;;;;;;;;;;5053773;28;20197;-80
2021/12/08 09:11:50;;;;;;;6.47;5.50;;;;;;;;;;5052392;28;20198;-81
2021/12/08 09:14:19;;;;;;;6.30;5.70;;;;;;;;;;5053196;28;20201;-81
2021/12/08 09:16:48;;;;;;;5.83;5.27;;;;;;;;;;5038906;28;20217;-82
2021/12/08 09:19:17;;;;;;;8.43;6.37;;;;;;;;;;5055973;28;20205;-82
2021/12/08 09:21:54;;;;;;;7.00;6.30;;;;;;;;;;5058565;28;20218;-81
2021/12/08 09:24:24;;;;;;;6.00;5.40;;;;;;;;;;5040550;28;20201;-81
2021/12/08 09:26:53;;;;;;;7.07;5.50;;;;;;;;;;5039307;28;20276;-81
2021/12/08 09:29:22;;;;;;;5.73;5.23;;;;;;;;;;5031061;28;20206;-82
2021/12/08 09:31:55;;;;;;;5.20;4.70;;;;;;;;;;5040391;28;20214;-81
2021/12/08 09:34:24;;;;;;;5.37;4.87;;;;;;;;;;5039265;28;20202;-82
2021/12/08 09:36:54;;;;;;;5.23;4.67;;;;;;;;;;5046984;28;20241;-84
2021/12/08 09:39:24;;;;;;;5.57;4.90;;;;;;;;;;5044963;28;20249;-81
2021/12/08 09:41:54;;;;;;;5.30;4.80;;;;;;;;;;5040353;28;20223;-84
2021/12/08 09:44:24;;;;;;;5.43;4.60;;;;;;;;;;5042246;28;20225;-81
2021/12/08 09:46:51;;;;;;;4.70;4.30;;;;;;;;;;5043634;28;20235;-81
2021/12/08 09:49:23;;;;;;;4.73;4.33;;;;;;;;;;5043058;28;20296;-83
2021/12/08 09:51:51;;;;;;;5.07;4.57;;;;;;;;;;5041213;28;20210;-82
2021/12/08 09:54:19;;;;;;;5.10;4.60;;;;;;;;;;5041258;28;20198;-82
2021/12/08 09:56:49;;;;;;;5.00;4.50;;;;;;;;;;5041801;28;20317;-82
2021/12/08 09:59:17;;;;;;;5.33;4.83;;;;;;;;;;5041238;28;20205;-83
2021/12/08 10:01:45;;;;;;;4.77;4.20;;;;;;;;;;5043276;28;20281;-81
2021/12/08 10:04:13;;;;;;;5.53;4.77;;;;;;;;;;5042945;28;20209;-83
2021/12/08 10:06:41;;;;;;;5.13;4.63;;;;;;;;;;5044149;28;20202;-81
2021/12/08 10:09:09;;;;;;;4.73;4.33;;;;;;;;;;5038820;28;20269;-83
2021/12/08 10:11:37;;;;;;;5.20;4.70;;;;;;;;;;5045101;28;20198;-83
2021/12/08 10:14:05;;;;;;;5.43;4.13;;;;;;;;;;5039534;28;20202;-82
2021/12/08 10:16:34;;;;;;;4.47;4.07;;;;;;;;;;5040338;28;20719;-83
2021/12/08 10:19:01;;;;;;;4.40;4.00;;;;;;;;;;5044615;28;20247;-83
2021/12/08 10:21:36;;;;;;;4.30;3.90;;;;;;;;;;5040800;28;20276;-82
2021/12/08 10:24:13;;;;;;;4.23;3.83;;;;;;;;;;5041020;28;20217;-83
2021/12/08 10:26:42;;;;;;;4.13;3.77;;;;;;;;;;5039841;28;20210;-83
2021/12/08 10:29:09;;;;;;;3.97;3.60;;;;;;;;;;5045141;28;20209;-83
2021/12/08 10:31:41;;;;;;;3.70;3.37;;;;;;;;;;5043438;28;20224;-82
2021/12/08 10:34:20;;;;;;;3.50;3.20;;;;;;;;;;5042387;28;20205;-83
2021/12/08 10:36:53;;;;;;;3.70;3.40;;;;;;;;;;5044810;28;20264;-82
2021/12/08 10:39:26;;;;;;;3.20;2.90;;;;;;;;;;5049583;28;20194;-85
2021/12/08 10:42:02;;;;;;;3.80;3.50;;;;;;;;;;5047006;28;20214;-84
2021/12/08 10:44:36;;;;;;;3.70;3.40;;;;;;;;;;5036927;28;20202;-85
2021/12/08 10:47:04;;;;;;;3.43;3.13;;;;;;;;;;5035544;28;20237;-83
2021/12/08 10:55:02;;;;;;;2.93;2.73;;;;;;;;;;5034910;28;20209;-83
2021/12/08 10:57:32;;;;;;;3.40;2.97;;;;;;;;;;5037081;28;20302;-84
2021/12/08 11:00:01;;;;;;;4.07;3.30;;;;;;;;;;5035707;28;20297;-84
2021/12/08 11:02:42;;;;;;;4.13;3.73;;;;;;;;;;5034026;28;20283;-86
2021/12/08 11:05:28;;;;;;;4.40;4.00;;;;;;;;;;5033739;28;20209;-86
2021/12/08 11:08:00;;;;;;;3.80;3.50;;;;;;;;;;5039367;28;20256;-86
2021/12/08 11:10:27;;;;;;;3.90;3.60;;;;;;;;;;5033166;28;20206;-87
2021/12/08 11:12:57;;;;;;;3.73;3.43;;;;;;;;;;5027664;28;20202;-86
2021/12/08 11:15:25;;;;;;;3.80;3.50;;;;;;;;;;5027574;28;20202;-84
2021/12/08 11:18:07;;;;;;;4.87;4.00;;;;;;;;;;5027945;28;20272;-84
2021/12/08 11:20:36;;;;;;;4.03;3.63;;;;;;;;;;5035091;28;20197;-84
2021/12/08 11:23:05;;;;;;;4.60;3.93;;;;;;;;;;5031654;28;20198;-84
2021/12/08 11:25:33;;;;;;;4.23;3.83;;;;;;;;;;5034947;28;20198;-83
2021/12/08 11:28:18;;;;;;;6.13;3.90;;;;;;;;;;5042334;28;20255;-83
2021/12/08 11:30:45;;;;;;;4.40;4.00;;;;;;;;;;5021090;28;20202;-84
2021/12/08 11:33:15;;;;;;;4.70;4.23;;;;;;;;;;5032154;28;20301;-86
2021/12/08 11:35:43;;;;;;;4.10;3.80;;;;;;;;;;5038530;28;20226;-85
2021/12/08 11:38:10;;;;;;;4.90;4.43;;;;;;;;;;5031424;28;20223;-85
2021/12/08 11:40:38;;;;;;;4.63;4.23;;;;;;;;;;5035483;28;20198;-84
2021/12/08 11:43:05;;;;;;;4.60;4.20;;;;;;;;;;5022418;28;20206;-84
2021/12/08 11:45:40;;;;;;;4.17;3.77;;;;;;;;;;5018862;28;20270;-84
2021/12/08 11:48:21;;;;;;;3.70;3.40;;;;;;;;;;5019043;28;20225;-84
2021/12/08 11:50:48;;;;;;;3.60;3.30;;;;;;;;;;5019697;28;20694;-85
2021/12/08 11:53:21;;;;;;;4.00;3.70;;;;;;;;;;5017865;28;20266;-85
2021/12/08 11:55:48;;;;;;;3.90;3.60;;;;;;;;;;5017585;28;20214;-84
2021/12/08 11:58:16;;;;;;;3.90;3.50;;;;;;;;;;5025470;28;20229;-85
2021/12/08 12:00:50;;;;;;;3.33;3.13;;;;;;;;;;5022923;28;20199;-85
2021/12/08 12:03:19;;;;;;;3.93;3.40;;;;;;;;;;5027762;28;20226;-83
2021/12/08 12:05:48;;;;;;;4.60;4.20;;;;;;;;;;5024019;28;20229;-82
2021/12/08 12:08:17;;;;;;;4.40;4.00;;;;;;;;;;5036808;28;20226;-83
2021/12/08 12:10:49;;;;;;;3.83;3.53;;;;;;;;;;5030875;28;20272;-82
2021/12/08 12:13:17;;;;;;;5.03;4.37;;;;;;;;;;5027276;28;20265;-83
2021/12/08 12:15:47;;;;;;;4.60;4.13;;;;;;;;;;5033113;28;20225;-83
2021/12/08 12:18:19;;;;;;;4.47;4.07;;;;;;;;;;5027004;28;20226;-83
2021/12/08 12:20:50;;;;;;;4.57;4.10;;;;;;;;;;5041053;28;20224;-82
2021/12/08 12:23:33;;;;;;;6.47;4.13;;;;;;;;;;5030671;28;20264;-84
2021/12/08 12:26:10;;;;;;;4.40;4.00;;;;;;;;;;5023268;28;20284;-85
2021/12/08 12:29:05;;;;;;;5.00;4.60;;;;;;;;;;5032835;28;20282;-83
2021/12/08 12:31:35;;;;;;;5.20;4.67;;;;;;;;;;5027266;28;20241;-84
2021/12/08 12:34:03;;;;;;;4.90;4.50;;;;;;;;;;5037007;28;20213;-85
2021/12/08 12:36:32;;;;;;;5.40;4.90;;;;;;;;;;5034010;28;20218;-85
2021/12/08 12:39:12;;;;;;;5.10;4.13;;;;;;;;;;5036699;28;20234;-85
2021/12/08 12:41:40;;;;;;;5.60;5.03;;;;;;;;;;5024004;28;20693;-86
2021/12/08 12:44:21;;;;;;;5.67;5.03;;;;;;;;;;5036260;28;20198;-85
2021/12/08 12:47:15;;;;;;;5.93;5.33;;;;;;;;;;5032158;28;20218;-90
2021/12/08 12:49:46;;;;;;;6.60;5.17;;;;;;;;;;5037074;28;20217;-86
2021/12/08 12:52:14;;;;;;;5.60;4.97;;;;;;;;;;5025555;28;20206;-84
2021/12/08 12:54:42;;;;;;;6.03;5.43;;;;;;;;;;5023496;28;20273;-84
2021/12/08 12:57:10;;;;;;;6.33;5.57;;;;;;;;;;5041942;28;20229;-84
2021/12/08 12:59:41;;;;;;;6.53;5.60;;;;;;;;;;5048101;28;20201;-85
2021/12/08 13:02:10;;;;;;;5.73;5.23;;;;;;;;;;5043940;28;20222;-84
2021/12/08 13:04:53;;;;;;;6.53;5.13;;;;;;;;;;5052521;28;20205;-85
2021/12/08 13:07:21;;;;;;;6.07;5.47;;;;;;;;;;5047814;28;20216;-85
2021/12/08 13:09:51;;;;;;;5.63;5.00;;;;;;;;;;5039597;28;20198;-83
2021/12/08 13:12:20;;;;;;;6.27;5.70;;;;;;;;;;5050699;28;20206;-82
2021/12/08 13:14:49;;;;;;;6.00;5.40;;;;;;;;;;5046294;28;20193;-83
2021/12/08 13:17:18;;;;;;;7.17;5.77;;;;;;;;;;5046731;28;20249;-82
2021/12/08 13:19:47;;;;;;;7.27;6.07;;;;;;;;;;5043044;28;20221;-83
2021/12/08 13:22:33;;;;;;;6.33;5.73;;;;;;;;;;5042709;28;20319;-82
2021/12/08 13:25:02;;;;;;;6.07;5.47;;;;;;;;;;5043380;28;20229;-83
2021/12/08 13:27:30;;;;;;;7.27;6.57;;;;;;;;;;5040521;28;20277;-83
2021/12/08 13:30:11;;;;;;;8.03;7.33;;;;;;;;;;5048871;28;20229;-84
2021/12/08 13:32:46;;;;;;;8.70;7.80;;;;;;;;;;5042615;28;20229;-83
2021/12/08 13:35:18;;;;;;;8.03;7.07;;;;;;;;;;5041509;28;20209;-82
2021/12/08 13:37:56;;;;;;;11.50;7.87;;;;;;;;;;5035981;28;20221;-82
2021/12/08 13:40:41;;;;;;;6.80;6.13;;;;;;;;;;5048059;28;20198;-84
2021/12/08 13:43:09;;;;;;;8.47;6.97;;;;;;;;;;5047246;28;20277;-83
2021/12/08 13:45:42;;;;;;;7.60;6.47;;;;;;;;;;5047299;28;20198;-84
2021/12/08 13:48:10;;;;;;;7.80;6.63;;;;;;;;;;5039678;28;20234;-81
2021/12/08 13:50:38;;;;;;;8.27;6.20;;;;;;;;;;5053176;28;20240;-82
2021/12/08 13:53:10;;;;;;;8.10;6.33;;;;;;;;;;5044287;28;20248;-82
2021/12/08 13:55:40;;;;;;;8.13;5.80;;;;;;;;;;5047730;28;20225;-85
2021/12/08 13:58:14;;;;;;;6.53;5.70;;;;;;;;;;5052937;28;20217;-81
2021/12/08 14:00:42;;;;;;;5.63;5.13;;;;;;;;;;5039524;28;20202;-83
2021/12/08 14:03:15;;;;;;;6.47;5.20;;;;;;;;;;5036582;28;20219;-81
2021/12/08 14:05:45;;;;;;;5.73;5.23;;;;;;;;;;5041495;28;20217;-81
2021/12/08 14:08:16;;;;;;;5.60;5.10;;;;;;;;;;5041213;28;20249;-81
2021/12/08 14:10:47;;;;;;;5.83;5.30;;;;;;;;;;5040413;28;20206;-82
2021/12/08 14:13:15;;;;;;;7.77;5.80;;;;;;;;;;5036283;28;20262;-80
2021/12/08 14:15:44;;;;;;;7.53;6.50;;;;;;;;;;5035507;28;20215;-83
2021/12/08 14:18:13;;;;;;;5.60;5.10;;;;;;;;;;5028778;28;20226;-82
2021/12/08 14:20:41;;;;;;;6.10;5.53;;;;;;;;;;5036491;28;20318;-83
2021/12/08 14:23:08;;;;;;;6.67;5.60;;;;;;;;;;5032627;28;20219;-88
2021/12/08 14:25:37;;;;;;;6.73;5.83;;;;;;;;;;5030844;28;20253;-79
2021/12/08 14:28:23;;;;;;;8.63;6.00;;;;;;;;;;5044093;28;20210;-82
2021/12/08 14:30:52;;;;;;;7.83;5.90;;;;;;;;;;5040441;28;20269;-82
2021/12/08 14:33:23;;;;;;;6.10;5.50;;;;;;;;;;5043511;28;20241;-81
2021/12/08 14:35:54;;;;;;;8.43;6.47;;;;;;;;;;5035666;28;20203;-82
2021/12/08 14:38:22;;;;;;;7.10;6.30;;;;;;;;;;5035408;28;20217;-79
2021/12/08 14:40:50;;;;;;;8.23;6.70;;;;;;;;;;5032946;28;20268;-82
2021/12/08 14:43:25;;;;;;;7.00;6.30;;;;;;;;;;5023811;28;20237;-82
2021/12/08 14:45:53;;;;;;;9.17;7.17;;;;;;;;;;5027171;28;20214;-80
2021/12/08 14:48:21;;;;;;;8.77;7.83;;;;;;;;;;5031303;28;20222;-82
2021/12/08 14:50:48;;;;;;;8.93;8.03;;;;;;;;;;5035543;28;20226;-83
2021/12/08 14:53:16;;;;;;;11.80;9.87;;;;;;;;;;5045933;28;20225;-83
2021/12/08 14:55:43;;;;;;;12.03;9.67;;;;;;;;;;5035450;28;20229;-83
2021/12/08 14:58:13;;;;;;;15.53;12.10;;;;;;;;;;5035679;28;20283;-83
2021/12/08 15:00:41;;;;;;;11.73;9.73;;;;;;;;;;5033617;28;20270;-81
2021/12/08 15:03:11;;;;;;;10.90;9.07;;;;;;;;;;5041491;28;20265;-82
2021/12/08 15:05:41;;;;;;;10.53;8.83;;;;;;;;;;5040752;28;20385;-82
2021/12/08 15:08:09;;;;;;;10.17;9.20;;;;;;;;;;5043054;28;20316;-84
2021/12/08 15:10:37;;;;;;;10.37;9.30;;;;;;;;;;5037214;28;20201;-83
2021/12/08 15:13:09;;;;;;;9.73;8.17;;;;;;;;;;5036341;28;20206;-84
2021/12/08 15:15:37;;;;;;;9.07;8.20;;;;;;;;;;5032710;28;20206;-84
2021/12/08 15:18:05;;;;;;;9.23;8.00;;;;;;;;;;5037677;28;20305;-82
2021/12/08 15:20:36;;;;;;;9.63;8.63;;;;;;;;;;5034176;28;20198;-84
2021/12/08 15:23:10;;;;;;;11.10;9.17;;;;;;;;;;5030816;28;20253;-83
2021/12/08 15:25:38;;;;;;;9.60;8.57;;;;;;;;;;5034243;28;20198;-83
2021/12/08 15:28:09;;;;;;;10.00;8.83;;;;;;;;;;5026771;28;20222;-83
2021/12/08 15:30:41;;;;;;;19.67;13.50;;;;;;;;;;5036547;28;20213;-83
2021/12/08 15:33:09;;;;;;;9.53;8.33;;;;;;;;;;5041968;28;20214;-82